sensor_id;sensor_type;location;lat;lon;timestamp;pressure;altitude;pressure_sealevel;temperature
24714;BMP280;12820;51.580;5.010;2023-04-30T00:02:35;102250.78;;;12.87
24714;BMP280;12820;51.580;5.010;2023-04-30T00:07:37;102255.84;;;12.81
24714;BMP280;12820;51.580;5.010;2023-04-30T00:12:43;102258.38;;;12.74
24714;BMP280;12820;51.580;5.010;2023-04-30T00:17:45;102258.38;;;12.68
24714;BMP280;12820;51.580;5.010;2023-04-30T00:22:47;102265.09;;;12.63
24714;BMP280;12820;51.580;5.010;2023-04-30T00:27:49;102265.06;;;12.57
24714;BMP280;12820;51.580;5.010;2023-04-30T00:32:51;102260.84;;;12.53
24714;BMP280;12820;51.580;5.010;2023-04-30T00:37:53;102260.00;;;12.48
24714;BMP280;12820;51.580;5.010;2023-04-30T00:42:55;102255.00;;;12.43
24714;BMP280;12820;51.580;5.010;2023-04-30T00:47:57;102261.72;;;12.38
24714;BMP280;12820;51.580;5.010;2023-04-30T00:53:00;102257.50;;;12.32
24714;BMP280;12820;51.580;5.010;2023-04-30T00:58:02;102260.84;;;12.27
24714;BMP280;12820;51.580;5.010;2023-04-30T01:03:04;102254.94;;;12.19
24714;BMP280;12820;51.580;5.010;2023-04-30T01:08:09;102252.44;;;12.13
24714;BMP280;12820;51.580;5.010;2023-04-30T01:13:16;102250.72;;;12.09
24714;BMP280;12820;51.580;5.010;2023-04-30T01:18:31;102250.72;;;12.04
24714;BMP280;12820;51.580;5.010;2023-04-30T01:29:03;102258.28;;;11.95
24714;BMP280;12820;51.580;5.010;2023-04-30T01:34:05;102258.22;;;11.90
24714;BMP280;12820;51.580;5.010;2023-04-30T01:44:44;102258.22;;;11.80
24714;BMP280;12820;51.580;5.010;2023-04-30T01:50:00;102261.53;;;11.76
24714;BMP280;12820;51.580;5.010;2023-04-30T01:55:10;102259.00;;;11.72
24714;BMP280;12820;51.580;5.010;2023-04-30T02:00:13;102259.00;;;11.68
24714;BMP280;12820;51.580;5.010;2023-04-30T02:05:18;102267.38;;;11.62
24714;BMP280;12820;51.580;5.010;2023-04-30T02:10:23;102279.09;;;11.57
24714;BMP280;12820;51.580;5.010;2023-04-30T02:15:26;102266.50;;;11.50
24714;BMP280;12820;51.580;5.010;2023-04-30T02:20:28;102258.06;;;11.45
24714;BMP280;12820;51.580;5.010;2023-04-30T02:25:30;102265.59;;;11.41
24714;BMP280;12820;51.580;5.010;2023-04-30T02:30:38;102278.19;;;11.38
24714;BMP280;12820;51.580;5.010;2023-04-30T02:35:40;102267.25;;;11.33
24714;BMP280;12820;51.580;5.010;2023-04-30T02:40:42;102273.09;;;11.29
24714;BMP280;12820;51.580;5.010;2023-04-30T02:45:44;102269.69;;;11.26
24714;BMP280;12820;51.580;5.010;2023-04-30T02:50:46;102274.72;;;11.23
24714;BMP280;12820;51.580;5.010;2023-04-30T02:55:48;102262.91;;;11.16
24714;BMP280;12820;51.580;5.010;2023-04-30T03:00:51;102269.59;;;11.11
24714;BMP280;12820;51.580;5.010;2023-04-30T03:05:53;102266.19;;;11.06
24714;BMP280;12820;51.580;5.010;2023-04-30T03:10:57;102265.34;;;11.06
24714;BMP280;12820;51.580;5.010;2023-04-30T03:16:01;102262.81;;;11.01
24714;BMP280;12820;51.580;5.010;2023-04-30T03:21:05;102267.00;;;11.01
24714;BMP280;12820;51.580;5.010;2023-04-30T03:26:07;102276.22;;;10.99
24714;BMP280;12820;51.580;5.010;2023-04-30T03:31:09;102267.00;;;10.95
24714;BMP280;12820;51.580;5.010;2023-04-30T03:36:12;102266.16;;;10.95
24714;BMP280;12820;51.580;5.010;2023-04-30T03:41:14;102263.59;;;10.93
24714;BMP280;12820;51.580;5.010;2023-04-30T03:46:16;102261.06;;;10.89
24714;BMP280;12820;51.580;5.010;2023-04-30T03:51:19;102276.97;;;10.85
24714;BMP280;12820;51.580;5.010;2023-04-30T03:56:21;102269.38;;;10.82
24714;BMP280;12820;51.580;5.010;2023-04-30T04:01:24;102277.75;;;10.78
24714;BMP280;12820;51.580;5.010;2023-04-30T04:06:26;102280.25;;;10.75
24714;BMP280;12820;51.580;5.010;2023-04-30T04:11:29;102278.53;;;10.71
24714;BMP280;12820;51.580;5.010;2023-04-30T04:16:31;102283.53;;;10.68
24714;BMP280;12820;51.580;5.010;2023-04-30T04:21:34;102283.53;;;10.65
24714;BMP280;12820;51.580;5.010;2023-04-30T04:26:41;102290.22;;;10.65
24714;BMP280;12820;51.580;5.010;2023-04-30T04:31:43;102288.50;;;10.63
24714;BMP280;12820;51.580;5.010;2023-04-30T04:36:47;102298.56;;;10.61
24714;BMP280;12820;51.580;5.010;2023-04-30T04:41:49;102294.38;;;10.62
24714;BMP280;12820;51.580;5.010;2023-04-30T04:46:51;102293.53;;;10.61
24714;BMP280;12820;51.580;5.010;2023-04-30T04:51:54;102297.75;;;10.62
24714;BMP280;12820;51.580;5.010;2023-04-30T04:56:56;102286.84;;;10.63
24714;BMP280;12820;51.580;5.010;2023-04-30T05:01:59;102284.34;;;10.67
24714;BMP280;12820;51.580;5.010;2023-04-30T05:07:01;102290.25;;;10.69
24714;BMP280;12820;51.580;5.010;2023-04-30T05:12:05;102288.63;;;10.74
24714;BMP280;12820;51.580;5.010;2023-04-30T05:17:07;102288.66;;;10.79
24714;BMP280;12820;51.580;5.010;2023-04-30T05:22:09;102285.38;;;10.85
24714;BMP280;12820;51.580;5.010;2023-04-30T05:27:11;102287.06;;;10.92
24714;BMP280;12820;51.580;5.010;2023-04-30T05:32:13;102290.53;;;11.04
24714;BMP280;12820;51.580;5.010;2023-04-30T05:37:15;102294.78;;;11.14
24714;BMP280;12820;51.580;5.010;2023-04-30T05:42:20;102300.72;;;11.25
24714;BMP280;12820;51.580;5.010;2023-04-30T05:47:22;102294.94;;;11.35
24714;BMP280;12820;51.580;5.010;2023-04-30T05:52:24;102295.84;;;11.45
24714;BMP280;12820;51.580;5.010;2023-04-30T05:57:26;102298.41;;;11.51
24714;BMP280;12820;51.580;5.010;2023-04-30T06:02:28;102297.59;;;11.59
24714;BMP280;12820;51.580;5.010;2023-04-30T06:07:31;102292.59;;;11.65
24714;BMP280;12820;51.580;5.010;2023-04-30T06:12:33;102283.38;;;11.73
24714;BMP280;12820;51.580;5.010;2023-04-30T06:17:35;102282.56;;;11.80
24714;BMP280;12820;51.580;5.010;2023-04-30T06:22:37;102294.34;;;11.88
24714;BMP280;12820;51.580;5.010;2023-04-30T06:27:39;102287.66;;;11.96
24714;BMP280;12820;51.580;5.010;2023-04-30T06:32:41;102291.03;;;12.05
24714;BMP280;12820;51.580;5.010;2023-04-30T06:37:43;102285.16;;;12.10
24714;BMP280;12820;51.580;5.010;2023-04-30T06:42:45;102292.75;;;12.21
24714;BMP280;12820;51.580;5.010;2023-04-30T06:47:48;102295.31;;;12.28
24714;BMP280;12820;51.580;5.010;2023-04-30T06:52:50;102300.34;;;12.34
24714;BMP280;12820;51.580;5.010;2023-04-30T06:57:52;102300.38;;;12.40
24714;BMP280;12820;51.580;5.010;2023-04-30T07:02:55;102306.25;;;12.46
24714;BMP280;12820;51.580;5.010;2023-04-30T07:08:00;102302.06;;;12.55
24714;BMP280;12820;51.580;5.010;2023-04-30T07:13:02;102301.28;;;12.65
24714;BMP280;12820;51.580;5.010;2023-04-30T07:18:04;102298.75;;;12.72
24714;BMP280;12820;51.580;5.010;2023-04-30T07:23:06;102290.34;;;12.79
24714;BMP280;12820;51.580;5.010;2023-04-30T07:28:08;102289.47;;;12.87
24714;BMP280;12820;51.580;5.010;2023-04-30T07:33:11;102289.47;;;12.96
24714;BMP280;12820;51.580;5.010;2023-04-30T07:38:13;102286.94;;;13.08
24714;BMP280;12820;51.580;5.010;2023-04-30T07:43:16;102291.13;;;13.17
24714;BMP280;12820;51.580;5.010;2023-04-30T07:48:18;102285.22;;;13.27
24714;BMP280;12820;51.580;5.010;2023-04-30T07:53:20;102282.69;;;13.36
24714;BMP280;12820;51.580;5.010;2023-04-30T07:58:22;102291.91;;;13.50
24714;BMP280;12820;51.580;5.010;2023-04-30T08:03:24;102283.41;;;13.61
24714;BMP280;12820;51.580;5.010;2023-04-30T08:08:26;102288.44;;;13.74
24714;BMP280;12820;51.580;5.010;2023-04-30T08:13:28;102290.09;;;13.88
24714;BMP280;12820;51.580;5.010;2023-04-30T08:18:31;102291.69;;;14.01
24714;BMP280;12820;51.580;5.010;2023-04-30T08:23:33;102300.03;;;14.15
24714;BMP280;12820;51.580;5.010;2023-04-30T08:28:35;102294.94;;;14.26
24714;BMP280;12820;51.580;5.010;2023-04-30T08:33:37;102291.47;;;14.40
24714;BMP280;12820;51.580;5.010;2023-04-30T08:38:40;102290.50;;;14.55
24714;BMP280;12820;51.580;5.010;2023-04-30T08:43:42;102282.81;;;14.69
24714;BMP280;12820;51.580;5.010;2023-04-30T08:48:47;102286.91;;;14.82
24714;BMP280;12820;51.580;5.010;2023-04-30T08:53:50;102286.81;;;14.96
24714;BMP280;12820;51.580;5.010;2023-04-30T08:58:53;102274.06;;;15.08
24714;BMP280;12820;51.580;5.010;2023-04-30T09:03:56;102275.59;;;15.21
24714;BMP280;12820;51.580;5.010;2023-04-30T09:09:07;102277.06;;;15.39
24714;BMP280;12820;51.580;5.010;2023-04-30T09:14:10;102272.69;;;15.53
24714;BMP280;12820;51.580;5.010;2023-04-30T09:19:29;102268.28;;;15.69
24714;BMP280;12820;51.580;5.010;2023-04-30T09:24:45;102278.22;;;15.82
24714;BMP280;12820;51.580;5.010;2023-04-30T09:29:48;102273.00;;;15.97
24714;BMP280;12820;51.580;5.010;2023-04-30T09:34:50;102265.19;;;16.10
24714;BMP280;12820;51.580;5.010;2023-04-30T09:39:53;102265.84;;;16.24
24714;BMP280;12820;51.580;5.010;2023-04-30T09:44:56;102259.69;;;16.38
24714;BMP280;12820;51.580;5.010;2023-04-30T09:49:59;102252.69;;;16.53
24714;BMP280;12820;51.580;5.010;2023-04-30T09:55:01;102239.69;;;16.71
24714;BMP280;12820;51.580;5.010;2023-04-30T10:00:04;102251.19;;;16.92
24714;BMP280;12820;51.580;5.010;2023-04-30T10:05:10;102238.81;;;17.19
24714;BMP280;12820;51.580;5.010;2023-04-30T10:10:13;102232.22;;;17.50
24714;BMP280;12820;51.580;5.010;2023-04-30T10:15:26;102228.88;;;17.88
24714;BMP280;12820;51.580;5.010;2023-04-30T10:20:30;102225.44;;;18.28
24714;BMP280;12820;51.580;5.010;2023-04-30T10:25:32;102222.75;;;18.66
24714;BMP280;12820;51.580;5.010;2023-04-30T10:30:35;102214.13;;;19.04
24714;BMP280;12820;51.580;5.010;2023-04-30T10:35:46;102216.47;;;19.41
24714;BMP280;12820;51.580;5.010;2023-04-30T10:40:54;102209.34;;;19.80
24714;BMP280;12820;51.580;5.010;2023-04-30T10:45:57;102206.44;;;20.18
24714;BMP280;12820;51.580;5.010;2023-04-30T10:51:00;102193.47;;;20.49
24714;BMP280;12820;51.580;5.010;2023-04-30T10:56:03;102187.19;;;20.83
24714;BMP280;12820;51.580;5.010;2023-04-30T11:01:12;102181.72;;;21.17
24714;BMP280;12820;51.580;5.010;2023-04-30T11:06:15;102174.47;;;21.50
24714;BMP280;12820;51.580;5.010;2023-04-30T11:11:21;102168.91;;;21.84
24714;BMP280;12820;51.580;5.010;2023-04-30T11:16:28;102163.88;;;22.23
24714;BMP280;12820;51.580;5.010;2023-04-30T11:21:31;102152.97;;;22.59
24714;BMP280;12820;51.580;5.010;2023-04-30T11:27:03;102138.31;;;22.99
24714;BMP280;12820;51.580;5.010;2023-04-30T11:32:09;102130.72;;;23.34
24714;BMP280;12820;51.580;5.010;2023-04-30T11:37:19;102129.72;;;23.72
24714;BMP280;12820;51.580;5.010;2023-04-30T11:42:21;102111.53;;;24.11
24714;BMP280;12820;51.580;5.010;2023-04-30T11:47:24;102112.94;;;24.50
24714;BMP280;12820;51.580;5.010;2023-04-30T11:52:26;102104.81;;;24.90
24714;BMP280;12820;51.580;5.010;2023-04-30T11:57:34;102103.97;;;25.36
24714;BMP280;12820;51.580;5.010;2023-04-30T12:02:36;102100.19;;;25.57
24714;BMP280;12820;51.580;5.010;2023-04-30T12:07:38;102084.47;;;25.91
24714;BMP280;12820;51.580;5.010;2023-04-30T12:12:44;102087.41;;;26.28
24714;BMP280;12820;51.580;5.010;2023-04-30T12:17:46;102075.06;;;26.61
24714;BMP280;12820;51.580;5.010;2023-04-30T12:22:48;102072.94;;;26.95
24714;BMP280;12820;51.580;5.010;2023-04-30T12:27:51;102072.16;;;27.34
24714;BMP280;12820;51.580;5.010;2023-04-30T12:32:57;102061.66;;;27.88
24714;BMP280;12820;51.580;5.010;2023-04-30T12:38:04;102053.44;;;28.56
24714;BMP280;12820;51.580;5.010;2023-04-30T12:43:07;102052.63;;;29.73
24714;BMP280;12820;51.580;5.010;2023-04-30T12:48:10;102036.84;;;30.10
24714;BMP280;12820;51.580;5.010;2023-04-30T12:53:12;102030.06;;;31.46
24714;BMP280;12820;51.580;5.010;2023-04-30T12:58:15;102026.13;;;32.71
24714;BMP280;12820;51.580;5.010;2023-04-30T13:03:18;102023.22;;;33.03
24714;BMP280;12820;51.580;5.010;2023-04-30T13:08:21;102012.59;;;33.25
24714;BMP280;12820;51.580;5.010;2023-04-30T13:13:25;102008.63;;;33.58
24714;BMP280;12820;51.580;5.010;2023-04-30T13:18:27;101999.63;;;34.61
24714;BMP280;12820;51.580;5.010;2023-04-30T13:23:29;101999.84;;;34.76
24714;BMP280;12820;51.580;5.010;2023-04-30T13:28:39;101985.81;;;33.14
24714;BMP280;12820;51.580;5.010;2023-04-30T13:33:41;101984.44;;;33.01
24714;BMP280;12820;51.580;5.010;2023-04-30T13:38:44;101978.84;;;34.33
24714;BMP280;12820;51.580;5.010;2023-04-30T13:43:47;101978.00;;;33.14
24714;BMP280;12820;51.580;5.010;2023-04-30T13:48:49;101974.75;;;32.15
24714;BMP280;12820;51.580;5.010;2023-04-30T13:53:53;101971.09;;;32.56
24714;BMP280;12820;51.580;5.010;2023-04-30T13:58:55;101953.94;;;34.64
24714;BMP280;12820;51.580;5.010;2023-04-30T14:03:58;101959.47;;;33.54
24714;BMP280;12820;51.580;5.010;2023-04-30T14:09:00;101951.75;;;33.80
24714;BMP280;12820;51.580;5.010;2023-04-30T14:14:02;101945.06;;;33.87
24714;BMP280;12820;51.580;5.010;2023-04-30T14:19:04;101935.03;;;34.97
24714;BMP280;12820;51.580;5.010;2023-04-30T14:24:07;101936.50;;;33.94
24714;BMP280;12820;51.580;5.010;2023-04-30T14:29:10;101930.97;;;34.42
24714;BMP280;12820;51.580;5.010;2023-04-30T14:34:12;101932.94;;;34.30
24714;BMP280;12820;51.580;5.010;2023-04-30T14:39:15;101924.13;;;35.18
24714;BMP280;12820;51.580;5.010;2023-04-30T14:44:17;101917.34;;;35.42
24714;BMP280;12820;51.580;5.010;2023-04-30T14:49:19;101915.56;;;35.25
24714;BMP280;12820;51.580;5.010;2023-04-30T14:54:21;101912.78;;;34.93
24714;BMP280;12820;51.580;5.010;2023-04-30T14:59:23;101904.59;;;35.22
24714;BMP280;12820;51.580;5.010;2023-04-30T15:04:25;101900.53;;;35.10
24714;BMP280;12820;51.580;5.010;2023-04-30T15:09:28;101888.47;;;35.51
24714;BMP280;12820;51.580;5.010;2023-04-30T15:14:30;101895.59;;;35.91
24714;BMP280;12820;51.580;5.010;2023-04-30T15:19:32;101892.06;;;36.32
24714;BMP280;12820;51.580;5.010;2023-04-30T15:24:34;101883.84;;;36.91
24714;BMP280;12820;51.580;5.010;2023-04-30T15:29:38;101878.50;;;37.32
24714;BMP280;12820;51.580;5.010;2023-04-30T15:34:41;101865.88;;;37.27
24714;BMP280;12820;51.580;5.010;2023-04-30T15:39:43;101862.16;;;36.50
24714;BMP280;12820;51.580;5.010;2023-04-30T15:44:45;101861.91;;;35.88
24714;BMP280;12820;51.580;5.010;2023-04-30T15:49:47;101854.09;;;35.46
24714;BMP280;12820;51.580;5.010;2023-04-30T15:54:49;101836.28;;;35.50
24714;BMP280;12820;51.580;5.010;2023-04-30T15:59:52;101835.03;;;35.78
24714;BMP280;12820;51.580;5.010;2023-04-30T16:04:54;101834.41;;;36.17
24714;BMP280;12820;51.580;5.010;2023-04-30T16:09:57;101834.25;;;36.18
24714;BMP280;12820;51.580;5.010;2023-04-30T16:15:00;101835.13;;;35.44
24714;BMP280;12820;51.580;5.010;2023-04-30T16:20:02;101831.97;;;34.48
24714;BMP280;12820;51.580;5.010;2023-04-30T16:25:05;101831.47;;;33.73
24714;BMP280;12820;51.580;5.010;2023-04-30T16:30:09;101829.41;;;33.23
24714;BMP280;12820;51.580;5.010;2023-04-30T16:35:11;101823.94;;;32.80
24714;BMP280;12820;51.580;5.010;2023-04-30T16:40:13;101815.16;;;32.44
24714;BMP280;12820;51.580;5.010;2023-04-30T16:45:15;101814.34;;;32.14
24714;BMP280;12820;51.580;5.010;2023-04-30T16:50:18;101814.00;;;31.89
24714;BMP280;12820;51.580;5.010;2023-04-30T16:55:20;101810.00;;;31.56
24714;BMP280;12820;51.580;5.010;2023-04-30T17:00:22;101807.53;;;31.35
24714;BMP280;12820;51.580;5.010;2023-04-30T17:05:24;101802.72;;;31.10
24714;BMP280;12820;51.580;5.010;2023-04-30T17:10:27;101790.94;;;30.76
24714;BMP280;12820;51.580;5.010;2023-04-30T17:15:31;101791.31;;;30.30
24714;BMP280;12820;51.580;5.010;2023-04-30T17:20:34;101791.03;;;29.92
24714;BMP280;12820;51.580;5.010;2023-04-30T17:25:37;101791.25;;;29.57
24714;BMP280;12820;51.580;5.010;2023-04-30T17:30:39;101789.03;;;29.19
24714;BMP280;12820;51.580;5.010;2023-04-30T17:35:42;101781.25;;;28.74
24714;BMP280;12820;51.580;5.010;2023-04-30T17:40:44;101792.66;;;28.26
24714;BMP280;12820;51.580;5.010;2023-04-30T17:45:46;101791.81;;;27.79
24714;BMP280;12820;51.580;5.010;2023-04-30T17:50:48;101779.63;;;27.32
24714;BMP280;12820;51.580;5.010;2023-04-30T17:55:51;101779.22;;;26.88
24714;BMP280;12820;51.580;5.010;2023-04-30T18:00:53;101776.19;;;26.43
24714;BMP280;12820;51.580;5.010;2023-04-30T18:05:57;101765.13;;;26.02
24714;BMP280;12820;51.580;5.010;2023-04-30T18:10:59;101775.34;;;25.63
24714;BMP280;12820;51.580;5.010;2023-04-30T18:16:03;101771.66;;;25.26
24714;BMP280;12820;51.580;5.010;2023-04-30T18:21:06;101767.81;;;24.90
24714;BMP280;12820;51.580;5.010;2023-04-30T18:26:09;101774.13;;;24.56
24714;BMP280;12820;51.580;5.010;2023-04-30T18:31:11;101774.34;;;24.22
24714;BMP280;12820;51.580;5.010;2023-04-30T18:36:14;101770.25;;;23.87
24714;BMP280;12820;51.580;5.010;2023-04-30T18:41:16;101774.59;;;23.55
24714;BMP280;12820;51.580;5.010;2023-04-30T18:46:18;101767.69;;;23.24
24714;BMP280;12820;51.580;5.010;2023-04-30T18:51:20;101770.94;;;22.95
24714;BMP280;12820;51.580;5.010;2023-04-30T18:56:23;101769.88;;;22.65
24714;BMP280;12820;51.580;5.010;2023-04-30T19:01:25;101761.88;;;22.37
24714;BMP280;12820;51.580;5.010;2023-04-30T19:06:28;101763.28;;;22.08
24714;BMP280;12820;51.580;5.010;2023-04-30T19:11:31;101773.16;;;21.79
24714;BMP280;12820;51.580;5.010;2023-04-30T19:16:36;101777.78;;;21.53
24714;BMP280;12820;51.580;5.010;2023-04-30T19:21:38;101778.94;;;21.27
24714;BMP280;12820;51.580;5.010;2023-04-30T19:26:40;101779.94;;;21.03
24714;BMP280;12820;51.580;5.010;2023-04-30T19:31:43;101788.56;;;20.82
24714;BMP280;12820;51.580;5.010;2023-04-30T19:36:46;101791.91;;;20.63
24714;BMP280;12820;51.580;5.010;2023-04-30T19:41:48;101785.91;;;20.43
24714;BMP280;12820;51.580;5.010;2023-04-30T19:46:50;101789.94;;;20.26
24714;BMP280;12820;51.580;5.010;2023-04-30T19:51:52;101793.09;;;20.11
24714;BMP280;12820;51.580;5.010;2023-04-30T19:56:55;101792.09;;;19.92
24714;BMP280;12820;51.580;5.010;2023-04-30T20:01:58;101791.88;;;19.76
24714;BMP280;12820;51.580;5.010;2023-04-30T20:07:01;101788.22;;;19.60
24714;BMP280;12820;51.580;5.010;2023-04-30T20:12:03;101785.28;;;19.47
24714;BMP280;12820;51.580;5.010;2023-04-30T20:17:05;101783.25;;;19.32
24714;BMP280;12820;51.580;5.010;2023-04-30T20:22:07;101782.88;;;19.20
24714;BMP280;12820;51.580;5.010;2023-04-30T20:27:13;101779.13;;;19.06
24714;BMP280;12820;51.580;5.010;2023-04-30T20:32:16;101782.09;;;18.93
24714;BMP280;12820;51.580;5.010;2023-04-30T20:37:18;101775.75;;;18.80
24714;BMP280;12820;51.580;5.010;2023-04-30T20:42:20;101773.56;;;18.68
24714;BMP280;12820;51.580;5.010;2023-04-30T20:47:22;101774.78;;;18.57
24714;BMP280;12820;51.580;5.010;2023-04-30T20:52:24;101775.09;;;18.47
24714;BMP280;12820;51.580;5.010;2023-04-30T20:57:27;101767.91;;;18.34
24714;BMP280;12820;51.580;5.010;2023-04-30T21:02:29;101767.38;;;18.23
24714;BMP280;12820;51.580;5.010;2023-04-30T21:07:32;101771.09;;;18.14
24714;BMP280;12820;51.580;5.010;2023-04-30T21:12:35;101768.03;;;18.03
24714;BMP280;12820;51.580;5.010;2023-04-30T21:17:37;101760.66;;;17.94
24714;BMP280;12820;51.580;5.010;2023-04-30T21:22:39;101762.59;;;17.86
24714;BMP280;12820;51.580;5.010;2023-04-30T21:27:42;101753.53;;;17.77
24714;BMP280;12820;51.580;5.010;2023-04-30T21:32:44;101752.09;;;17.68
24714;BMP280;12820;51.580;5.010;2023-04-30T21:37:49;101748.06;;;17.60
24714;BMP280;12820;51.580;5.010;2023-04-30T21:42:51;101747.47;;;17.52
24714;BMP280;12820;51.580;5.010;2023-04-30T21:47:54;101751.84;;;17.47
24714;BMP280;12820;51.580;5.010;2023-04-30T21:52:56;101737.66;;;17.41
24714;BMP280;12820;51.580;5.010;2023-04-30T21:57:58;101736.00;;;17.38
24714;BMP280;12820;51.580;5.010;2023-04-30T22:03:00;101732.72;;;17.35
24714;BMP280;12820;51.580;5.010;2023-04-30T22:08:02;101731.97;;;17.31
24714;BMP280;12820;51.580;5.010;2023-04-30T22:13:06;101721.84;;;17.30
24714;BMP280;12820;51.580;5.010;2023-04-30T22:18:08;101721.97;;;17.25
24714;BMP280;12820;51.580;5.010;2023-04-30T22:23:10;101719.50;;;17.23
24714;BMP280;12820;51.580;5.010;2023-04-30T22:28:12;101712.00;;;17.18
24714;BMP280;12820;51.580;5.010;2023-04-30T22:33:17;101710.44;;;17.14
24714;BMP280;12820;51.580;5.010;2023-04-30T22:38:21;101709.63;;;17.12
24714;BMP280;12820;51.580;5.010;2023-04-30T22:43:23;101710.53;;;17.11
24714;BMP280;12820;51.580;5.010;2023-04-30T22:48:25;101709.75;;;17.08
24714;BMP280;12820;51.580;5.010;2023-04-30T22:53:28;101707.28;;;17.07
24714;BMP280;12820;51.580;5.010;2023-04-30T22:58:30;101698.84;;;17.05
24714;BMP280;12820;51.580;5.010;2023-04-30T23:03:33;101701.47;;;17.02
24714;BMP280;12820;51.580;5.010;2023-04-30T23:08:35;101689.66;;;16.99
24714;BMP280;12820;51.580;5.010;2023-04-30T23:13:37;101693.91;;;16.99
24714;BMP280;12820;51.580;5.010;2023-04-30T23:18:40;101697.41;;;16.95
24714;BMP280;12820;51.580;5.010;2023-04-30T23:23:42;101689.03;;;16.93
24714;BMP280;12820;51.580;5.010;2023-04-30T23:28:44;101681.44;;;16.90
24714;BMP280;12820;51.580;5.010;2023-04-30T23:33:46;101676.44;;;16.87
24714;BMP280;12820;51.580;5.010;2023-04-30T23:38:48;101673.16;;;16.84
24714;BMP280;12820;51.580;5.010;2023-04-30T23:43:50;101665.63;;;16.79
24714;BMP280;12820;51.580;5.010;2023-04-30T23:48:52;101655.56;;;16.76
24714;BMP280;12820;51.580;5.010;2023-04-30T23:53:55;101655.69;;;16.72
24714;BMP280;12820;51.580;5.010;2023-04-30T23:58:57;101642.25;;;16.69
